createdAt,value
2023-05-16T00:00:49.046Z,2.23
2023-05-16T00:01:49.162Z,2.33
2023-05-16T00:02:49.262Z,2.41
2023-05-16T00:03:49.229Z,2.15
2023-05-16T00:04:49.227Z,2.05
2023-05-16T00:05:49.261Z,2.14
2023-05-16T00:06:49.337Z,2.36
2023-05-16T00:07:49.341Z,2.00
2023-05-16T00:08:49.431Z,2.38
2023-05-16T00:09:49.430Z,2.23
2023-05-16T00:10:49.490Z,2.29
2023-05-16T00:11:49.528Z,2.27
2023-05-16T00:12:50.381Z,2.36
2023-05-16T00:13:49.603Z,1.97
2023-05-16T00:14:49.669Z,2.45
2023-05-16T00:15:49.711Z,2.18
2023-05-16T00:16:49.780Z,2.30
2023-05-16T00:17:49.895Z,2.43
2023-05-16T00:18:49.953Z,2.25
2023-05-16T00:19:49.916Z,1.96
2023-05-16T00:20:49.960Z,2.07
2023-05-16T00:21:50.012Z,2.27
2023-05-16T00:22:50.015Z,2.63
2023-05-16T00:23:50.069Z,2.47
2023-05-16T00:24:50.088Z,2.30
2023-05-16T00:25:50.154Z,2.14
2023-05-16T00:26:50.155Z,2.30
2023-05-16T00:27:50.242Z,2.01
2023-05-16T00:28:50.293Z,2.34
2023-05-16T00:29:50.322Z,2.20
2023-05-16T00:30:50.371Z,2.48
2023-05-16T00:31:50.469Z,2.23
2023-05-16T00:32:50.482Z,2.74
2023-05-16T00:33:50.495Z,2.42
2023-05-16T00:34:50.673Z,2.31
2023-05-16T00:35:50.628Z,2.11
2023-05-16T00:36:50.638Z,2.42
2023-05-16T00:37:50.694Z,2.18
2023-05-16T00:38:50.765Z,2.10
2023-05-16T00:39:50.791Z,2.28
2023-05-16T00:40:50.866Z,1.72
2023-05-16T00:41:50.885Z,2.31
2023-05-16T00:42:50.922Z,1.90
2023-05-16T00:43:50.986Z,2.03
2023-05-16T00:44:51.038Z,2.37
2023-05-16T00:45:51.114Z,2.40
2023-05-16T00:46:51.178Z,2.74
2023-05-16T00:47:51.259Z,2.31
2023-05-16T00:48:51.212Z,2.23
2023-05-16T00:49:51.309Z,2.37
2023-05-16T00:50:51.350Z,2.33
2023-05-16T00:51:51.370Z,2.60
2023-05-16T00:52:51.425Z,2.57
2023-05-16T00:53:51.483Z,2.20
2023-05-16T00:54:51.518Z,2.21
2023-05-16T00:55:51.577Z,2.37
2023-05-16T00:56:51.644Z,1.77
2023-05-16T00:57:51.678Z,2.08
2023-05-16T00:58:51.718Z,2.21
2023-05-16T00:59:51.757Z,1.99
2023-05-16T01:00:51.805Z,2.46
2023-05-16T01:01:51.922Z,2.41
2023-05-16T01:02:52.008Z,2.07
2023-05-16T01:03:52.056Z,2.27
2023-05-16T01:04:52.015Z,2.26
2023-05-16T01:05:52.062Z,2.49
2023-05-16T01:06:52.108Z,2.38
2023-05-16T01:07:52.155Z,2.42
2023-05-16T01:08:52.197Z,2.49
2023-05-16T01:09:52.271Z,2.29
2023-05-16T01:10:52.310Z,2.15
2023-05-16T01:11:52.362Z,2.38
2023-05-16T01:12:52.390Z,1.94
2023-05-16T01:13:52.427Z,2.21
2023-05-16T01:14:52.522Z,2.12
2023-05-16T01:15:52.601Z,2.33
2023-05-16T01:16:52.575Z,2.47
2023-05-16T01:17:52.740Z,2.09
2023-05-16T01:18:52.881Z,2.40
2023-05-16T01:19:52.752Z,2.21
2023-05-16T01:20:52.791Z,2.32
2023-05-16T01:21:52.859Z,2.34
2023-05-16T01:22:52.881Z,2.12
2023-05-16T01:23:52.914Z,2.43
2023-05-16T01:24:52.956Z,2.08
2023-05-16T01:25:53.053Z,2.32
2023-05-16T01:26:53.102Z,2.29
2023-05-16T01:27:53.152Z,2.37
2023-05-16T01:28:53.200Z,2.39
2023-05-16T01:29:53.221Z,2.36
2023-05-16T01:30:53.281Z,1.83
2023-05-16T01:31:53.514Z,2.60
2023-05-16T01:32:53.440Z,2.24
2023-05-16T01:33:53.443Z,2.40
2023-05-16T01:34:53.493Z,2.46
2023-05-16T01:35:53.586Z,2.45
2023-05-16T01:36:53.627Z,2.63
2023-05-16T01:37:53.665Z,2.42
2023-05-16T01:38:53.700Z,2.58
2023-05-16T01:39:53.789Z,2.92
2023-05-16T01:40:53.839Z,2.24
2023-05-16T01:41:53.891Z,2.74
2023-05-16T01:42:53.920Z,2.06
2023-05-16T01:43:53.961Z,2.52
2023-05-16T01:44:54.066Z,2.24
2023-05-16T01:45:54.123Z,2.44
2023-05-16T01:46:54.176Z,2.11
2023-05-16T01:47:54.917Z,2.35
2023-05-16T01:48:54.242Z,1.90
2023-05-16T01:49:54.333Z,2.18
2023-05-16T01:50:54.333Z,2.41
2023-05-16T01:51:54.415Z,2.48
2023-05-16T01:52:54.470Z,2.31
2023-05-16T01:53:54.508Z,2.29
2023-05-16T01:54:54.559Z,2.68
2023-05-16T01:55:54.614Z,2.19
2023-05-16T01:56:54.684Z,2.32
2023-05-16T01:57:54.752Z,2.32
2023-05-16T01:58:54.776Z,2.37
2023-05-16T01:59:54.860Z,2.57
2023-05-16T02:00:54.991Z,2.44
2023-05-16T02:01:54.937Z,2.43
2023-05-16T02:02:55.066Z,2.57
2023-05-16T02:03:55.104Z,2.31
2023-05-16T02:04:55.109Z,2.01
2023-05-16T02:05:55.136Z,2.37
2023-05-16T02:06:55.211Z,2.10
2023-05-16T02:07:55.281Z,2.29
2023-05-16T02:08:55.314Z,2.27
2023-05-16T02:09:55.360Z,2.22
2023-05-16T02:10:55.405Z,2.14
2023-05-16T02:11:55.461Z,2.33
2023-05-16T02:12:55.544Z,2.13
2023-05-16T02:13:55.561Z,1.99
2023-05-16T02:14:55.613Z,1.96
2023-05-16T02:15:55.687Z,2.56
2023-05-16T02:16:55.804Z,2.62
2023-05-16T02:17:55.896Z,2.55
2023-05-16T02:18:55.844Z,2.00
2023-05-16T02:19:55.897Z,2.56
2023-05-16T02:20:55.938Z,2.38
2023-05-16T02:21:55.993Z,2.30
2023-05-16T02:22:56.045Z,2.32
2023-05-16T02:23:56.106Z,2.42
2023-05-16T02:24:56.163Z,2.62
2023-05-16T02:25:56.220Z,2.45
2023-05-16T02:26:56.271Z,2.26
2023-05-16T02:27:56.329Z,2.24
2023-05-16T02:28:56.371Z,2.61
2023-05-16T02:29:56.422Z,2.86
2023-05-16T02:30:56.534Z,2.37
2023-05-16T02:31:56.531Z,2.31
2023-05-16T02:32:56.643Z,2.30
2023-05-16T02:33:56.640Z,2.48
2023-05-16T02:34:56.701Z,2.11
2023-05-16T02:35:56.756Z,2.40
2023-05-16T02:36:56.787Z,2.67
2023-05-16T02:37:56.848Z,2.79
2023-05-16T02:38:56.904Z,2.13
2023-05-16T02:39:56.929Z,2.37
2023-05-16T02:40:56.964Z,2.39
2023-05-16T02:41:56.996Z,2.29
2023-05-16T02:42:57.095Z,2.19
2023-05-16T02:43:57.106Z,2.39
2023-05-16T02:44:57.155Z,2.22
2023-05-16T02:45:57.239Z,2.70
2023-05-16T02:46:57.245Z,1.94
2023-05-16T02:47:57.306Z,2.32
2023-05-16T02:48:57.326Z,2.67
2023-05-16T02:49:57.350Z,2.23
2023-05-16T02:50:57.424Z,2.47
2023-05-16T02:51:57.470Z,2.24
2023-05-16T02:52:57.518Z,1.99
2023-05-16T02:53:57.540Z,2.26
2023-05-16T02:55:10.084Z,2.58
2023-05-16T02:55:58.609Z,2.59
2023-05-16T02:56:57.564Z,2.33
2023-05-16T02:57:57.592Z,2.53
2023-05-16T02:58:57.577Z,2.05
2023-05-16T02:59:57.574Z,2.64
2023-05-16T03:00:57.578Z,2.42
2023-05-16T03:01:57.593Z,2.19
2023-05-16T03:02:57.595Z,2.61
2023-05-16T03:03:57.648Z,2.42
2023-05-16T03:04:57.577Z,2.52
2023-05-16T03:05:57.509Z,2.23
2023-05-16T03:06:57.512Z,2.25
2023-05-16T03:07:57.554Z,2.22
2023-05-16T03:08:57.601Z,2.35
2023-05-16T03:09:57.643Z,2.24
2023-05-16T03:10:57.680Z,2.30
2023-05-16T03:11:57.716Z,2.16
2023-05-16T03:12:57.756Z,2.19
2023-05-16T03:13:58.718Z,2.49
2023-05-16T03:14:57.879Z,1.85
2023-05-16T03:15:57.954Z,2.47
2023-05-16T03:16:57.956Z,2.44
2023-05-16T03:17:58.042Z,2.22
2023-05-16T03:18:58.146Z,2.57
2023-05-16T03:19:58.111Z,2.58
2023-05-16T03:20:58.154Z,2.41
2023-05-16T03:21:58.205Z,2.74
2023-05-16T03:22:58.285Z,2.34
2023-05-16T03:23:58.331Z,2.60
2023-05-16T03:24:58.371Z,2.54
2023-05-16T03:25:59.972Z,2.66
2023-05-16T03:26:58.450Z,2.34
2023-05-16T03:27:58.520Z,1.95
2023-05-16T03:28:58.560Z,2.29
2023-05-16T03:29:58.640Z,2.23
2023-05-16T03:30:58.690Z,2.72
2023-05-16T03:31:58.783Z,2.77
2023-05-16T03:32:58.829Z,2.63
2023-05-16T03:33:58.812Z,2.59
2023-05-16T03:34:58.852Z,2.39
2023-05-16T03:35:58.905Z,2.19
2023-05-16T03:36:58.942Z,2.25
2023-05-16T03:37:58.998Z,2.45
2023-05-16T03:38:59.029Z,1.92
2023-05-16T03:39:59.111Z,2.34
2023-05-16T03:40:59.161Z,2.53
2023-05-16T03:41:59.191Z,2.76
2023-05-16T03:42:59.373Z,2.22
2023-05-16T03:43:59.311Z,2.41
2023-05-16T03:44:59.358Z,2.35
2023-05-16T03:45:59.460Z,2.27
2023-05-16T03:46:59.456Z,2.40
2023-05-16T03:47:59.599Z,2.27
2023-05-16T03:48:59.578Z,2.22
2023-05-16T03:49:59.618Z,2.74
2023-05-16T03:50:59.697Z,2.56
2023-05-16T03:51:59.744Z,1.94
2023-05-16T03:52:59.783Z,2.30
2023-05-16T03:53:59.848Z,2.78
2023-05-16T03:54:59.891Z,2.38
2023-05-16T03:55:59.968Z,2.47
2023-05-16T03:57:00.012Z,2.41
2023-05-16T03:58:00.072Z,2.56
2023-05-16T03:59:00.128Z,2.63
2023-05-16T04:00:00.164Z,1.91
2023-05-16T04:01:00.228Z,1.93
2023-05-16T04:02:00.324Z,2.34
2023-05-16T04:03:00.372Z,2.19
2023-05-16T04:04:00.403Z,2.76
2023-05-16T04:05:00.438Z,2.42
2023-05-16T04:06:00.528Z,2.62
2023-05-16T04:07:00.558Z,2.25
2023-05-16T04:08:00.613Z,2.12
2023-05-16T04:09:00.678Z,2.44
2023-05-16T04:10:00.720Z,2.50
2023-05-16T04:11:00.819Z,2.64
2023-05-16T04:12:00.833Z,2.70
2023-05-16T04:13:00.861Z,2.83
2023-05-16T04:14:00.968Z,2.52
2023-05-16T04:15:01.049Z,2.77
2023-05-16T04:16:01.073Z,2.44
2023-05-16T04:17:01.163Z,2.50
2023-05-16T04:18:01.183Z,2.53
2023-05-16T04:19:01.246Z,2.16
2023-05-16T04:20:01.295Z,2.40
2023-05-16T04:21:01.349Z,2.44
2023-05-16T04:22:01.371Z,2.38
2023-05-16T04:23:01.463Z,2.30
2023-05-16T04:24:01.514Z,2.12
2023-05-16T04:25:01.537Z,2.83
2023-05-16T04:26:01.633Z,2.23
2023-05-16T04:27:01.681Z,2.73
2023-05-16T04:28:01.712Z,1.99
2023-05-16T04:29:01.780Z,2.40
2023-05-16T04:30:01.842Z,2.00
2023-05-16T04:31:01.959Z,2.58
2023-05-16T04:32:02.003Z,2.38
2023-05-16T04:33:02.013Z,2.44
2023-05-16T04:34:02.053Z,2.26
2023-05-16T04:35:02.138Z,2.24
2023-05-16T04:36:02.177Z,2.40
2023-05-16T04:37:02.238Z,3.14
2023-05-16T04:38:02.270Z,2.42
2023-05-16T04:39:02.338Z,2.70
2023-05-16T04:40:02.403Z,2.42
2023-05-16T04:41:02.448Z,2.31
2023-05-16T04:42:02.519Z,2.39
2023-05-16T04:43:02.564Z,2.53
2023-05-16T04:44:02.618Z,2.86
2023-05-16T04:45:02.654Z,2.43
2023-05-16T04:46:02.753Z,2.03
2023-05-16T04:47:02.781Z,2.54
2023-05-16T04:48:02.873Z,2.35
2023-05-16T04:49:02.929Z,2.48
2023-05-16T04:50:02.995Z,2.52
2023-05-16T04:51:03.050Z,2.68
2023-05-16T04:52:03.057Z,2.28
2023-05-16T04:53:03.140Z,2.32
2023-05-16T04:54:03.191Z,2.41
2023-05-16T04:55:03.248Z,2.55
2023-05-16T04:56:03.323Z,2.28
2023-05-16T04:57:03.365Z,2.34
2023-05-16T04:58:03.469Z,2.41
2023-05-16T04:59:03.510Z,2.44
2023-05-16T05:00:03.562Z,2.24
2023-05-16T05:01:03.617Z,2.36
2023-05-16T05:02:03.755Z,2.60
2023-05-16T05:03:03.792Z,3.16
2023-05-16T05:04:03.827Z,2.52
2023-05-16T05:05:03.963Z,2.54
2023-05-16T05:06:03.932Z,2.68
2023-05-16T05:07:03.987Z,2.53
2023-05-16T05:08:04.049Z,2.69
2023-05-16T05:09:04.107Z,3.00
2023-05-16T05:10:04.176Z,2.31
2023-05-16T05:11:04.209Z,2.56
2023-05-16T05:12:04.259Z,2.53
2023-05-16T05:13:04.379Z,2.73
2023-05-16T05:14:04.376Z,2.28
2023-05-16T05:15:04.463Z,2.44
2023-05-16T05:16:04.529Z,2.61
2023-05-16T05:17:04.686Z,2.48
2023-05-16T05:18:04.696Z,2.28
2023-05-16T05:19:04.748Z,2.29
2023-05-16T05:20:04.747Z,2.77
2023-05-16T05:21:04.845Z,2.55
2023-05-16T05:22:04.892Z,2.51
2023-05-16T05:23:04.949Z,2.50
2023-05-16T05:24:05.031Z,2.43
2023-05-16T05:25:05.052Z,2.44
2023-05-16T05:26:05.119Z,2.54
2023-05-16T05:27:05.206Z,2.36
2023-05-16T05:28:05.244Z,2.64
2023-05-16T05:29:06.227Z,2.96
2023-05-16T05:30:05.391Z,2.85
2023-05-16T05:31:05.509Z,2.31
2023-05-16T05:32:05.593Z,2.23
2023-05-16T05:33:05.631Z,2.56
2023-05-16T05:34:05.653Z,2.22
2023-05-16T05:35:05.709Z,2.46
2023-05-16T05:36:05.761Z,2.41
2023-05-16T05:37:05.799Z,2.48
2023-05-16T05:38:05.861Z,2.65
2023-05-16T05:39:05.948Z,2.58
2023-05-16T05:40:06.011Z,2.49
2023-05-16T05:41:06.074Z,2.58
2023-05-16T05:42:06.128Z,2.56
2023-05-16T05:43:06.181Z,2.61
2023-05-16T05:44:06.306Z,3.70
2023-05-16T05:45:06.288Z,2.37
2023-05-16T05:46:06.405Z,3.10
2023-05-16T05:47:06.419Z,3.08
2023-05-16T05:48:06.566Z,3.45
2023-05-16T05:49:06.535Z,3.53
2023-05-16T05:50:06.564Z,3.65
2023-05-16T05:51:06.617Z,3.66
2023-05-16T05:52:06.672Z,4.01
2023-05-16T05:53:06.763Z,3.57
2023-05-16T05:54:06.803Z,3.63
2023-05-16T05:55:06.886Z,4.15
2023-05-16T05:56:06.924Z,4.00
2023-05-16T05:57:06.978Z,4.82
2023-05-16T05:58:07.409Z,3.58
2023-05-16T05:59:07.124Z,3.83
2023-05-16T06:00:07.149Z,3.50
2023-05-16T06:01:07.214Z,3.81
2023-05-16T06:02:07.315Z,4.47
2023-05-16T06:03:07.419Z,4.60
2023-05-16T06:04:07.394Z,4.29
2023-05-16T06:05:07.463Z,4.61
2023-05-16T06:06:07.545Z,5.07
2023-05-16T06:07:07.581Z,4.36
2023-05-16T06:08:07.626Z,4.01
2023-05-16T06:09:07.704Z,4.70
2023-05-16T06:10:07.741Z,3.92
2023-05-16T06:11:07.825Z,4.43
2023-05-16T06:12:07.851Z,4.61
2023-05-16T06:13:07.895Z,4.43
2023-05-16T06:14:07.946Z,4.27
2023-05-16T06:15:08.026Z,4.96
2023-05-16T06:16:09.599Z,4.78
2023-05-16T06:17:08.259Z,4.69
2023-05-16T06:18:08.211Z,4.28
2023-05-16T06:19:08.324Z,4.66
2023-05-16T06:20:08.304Z,4.32
2023-05-16T06:21:08.351Z,5.38
2023-05-16T06:22:08.421Z,4.42
2023-05-16T06:23:08.493Z,4.59
2023-05-16T06:24:08.521Z,4.04
2023-05-16T06:25:08.620Z,4.09
2023-05-16T06:26:08.664Z,4.31
2023-05-16T06:27:08.704Z,4.29
2023-05-16T06:28:08.742Z,4.55
2023-05-16T06:29:08.804Z,5.31
2023-05-16T06:30:08.855Z,4.94
2023-05-16T06:31:08.925Z,3.85
2023-05-16T06:33:09.125Z,4.15
2023-05-16T06:34:09.025Z,4.49
2023-05-16T06:35:09.081Z,5.36
2023-05-16T06:36:09.141Z,4.97
2023-05-16T06:37:09.181Z,4.43
2023-05-16T06:38:09.200Z,4.77
2023-05-16T06:39:10.580Z,4.21
2023-05-16T06:40:09.261Z,4.35
2023-05-16T06:41:09.304Z,4.08
2023-05-16T06:42:09.317Z,4.12
2023-05-16T06:43:09.330Z,4.80
2023-05-16T06:44:09.390Z,4.97
2023-05-16T06:45:09.390Z,4.90
2023-05-16T06:46:16.473Z,4.12
2023-05-16T06:47:09.438Z,4.18
2023-05-16T06:48:09.441Z,4.71
2023-05-16T06:49:09.411Z,4.72
2023-05-16T06:50:09.411Z,4.87
2023-05-16T06:51:09.376Z,4.61
2023-05-16T06:52:09.404Z,4.98
2023-05-16T06:53:09.365Z,4.48
2023-05-16T06:54:09.351Z,4.70
2023-05-16T06:55:09.364Z,4.80
2023-05-16T06:56:09.409Z,4.72
2023-05-16T06:57:09.354Z,4.82
2023-05-16T06:58:09.317Z,4.83
2023-05-16T06:59:09.302Z,4.25
2023-05-16T07:00:09.305Z,4.57
2023-05-16T07:01:09.376Z,4.83
2023-05-16T07:02:09.316Z,4.48
2023-05-16T07:03:09.424Z,4.56
2023-05-16T07:04:09.370Z,4.36
2023-05-16T07:05:09.277Z,4.57
2023-05-16T07:06:09.297Z,4.49
2023-05-16T07:07:09.281Z,4.40
2023-05-16T07:08:09.265Z,4.64
2023-05-16T07:09:09.287Z,4.37
2023-05-16T07:10:09.234Z,3.67
2023-05-16T07:11:09.282Z,4.53
2023-05-16T07:12:09.236Z,4.29
2023-05-16T07:13:09.288Z,4.56
2023-05-16T07:14:09.378Z,3.79
2023-05-16T07:15:09.225Z,4.65
2023-05-16T07:16:09.333Z,4.13
2023-05-16T07:17:09.382Z,4.85
2023-05-16T07:18:09.246Z,4.71
2023-05-16T07:19:09.267Z,4.80
2023-05-16T07:20:09.197Z,4.56
2023-05-16T07:21:09.205Z,4.49
2023-05-16T07:22:09.177Z,4.51
2023-05-16T07:23:09.184Z,4.55
2023-05-16T07:24:09.182Z,4.81
2023-05-16T07:25:09.143Z,4.19
2023-05-16T07:26:09.164Z,5.02
2023-05-16T07:27:09.207Z,4.09
2023-05-16T07:28:09.133Z,3.96
2023-05-16T07:29:09.134Z,4.60
2023-05-16T07:30:09.127Z,4.71
2023-05-16T07:31:09.227Z,4.66
2023-05-16T07:32:09.155Z,4.83
2023-05-16T07:33:09.236Z,5.30
2023-05-16T07:34:09.168Z,4.67
2023-05-16T07:35:09.275Z,4.03
2023-05-16T07:37:10.304Z,4.48
2023-05-16T07:38:09.301Z,3.78
2023-05-16T07:39:09.285Z,3.98
2023-05-16T07:40:09.271Z,4.30
2023-05-16T07:41:09.296Z,4.10
2023-05-16T07:42:09.250Z,4.11
2023-05-16T07:43:09.267Z,4.22
2023-05-16T07:44:09.247Z,4.62
2023-05-16T07:45:09.264Z,4.79
2023-05-16T07:46:09.306Z,4.76
2023-05-16T07:47:09.307Z,4.89
2023-05-16T07:48:09.518Z,4.76
2023-05-16T07:49:09.416Z,4.86
2023-05-16T07:50:09.433Z,5.01
2023-05-16T07:51:09.542Z,5.17
2023-05-16T07:52:09.537Z,5.41
2023-05-16T07:53:09.585Z,4.46
2023-05-16T07:54:09.645Z,4.81
2023-05-16T07:55:09.692Z,5.71
2023-05-16T07:56:09.741Z,4.16
2023-05-16T07:57:09.844Z,4.79
2023-05-16T07:58:09.858Z,5.00
2023-05-16T07:59:09.978Z,4.10
2023-05-16T08:00:09.981Z,4.36
2023-05-16T08:01:10.060Z,4.13
2023-05-16T08:02:10.146Z,4.43
2023-05-16T08:03:10.195Z,4.02
2023-05-16T08:04:10.190Z,4.07
2023-05-16T08:05:10.307Z,4.18
2023-05-16T08:06:10.444Z,4.19
2023-05-16T08:07:17.400Z,4.99
2023-05-16T08:08:10.361Z,4.57
2023-05-16T08:09:10.349Z,5.02
2023-05-16T08:10:13.179Z,4.21
2023-05-16T08:11:10.350Z,4.69
2023-05-16T08:12:10.347Z,3.84
2023-05-16T08:13:10.340Z,4.26
2023-05-16T08:14:10.349Z,3.79
2023-05-16T08:15:10.314Z,4.27
2023-05-16T08:16:10.343Z,4.65
2023-05-16T08:17:10.289Z,3.97
2023-05-16T08:18:10.329Z,4.06
2023-05-16T08:19:10.314Z,4.21
2023-05-16T08:20:10.275Z,4.27
2023-05-16T08:21:10.262Z,4.27
2023-05-16T08:22:10.313Z,4.06
2023-05-16T08:23:10.262Z,4.09
2023-05-16T08:24:10.258Z,4.33
2023-05-16T08:25:10.254Z,3.71
2023-05-16T08:26:10.252Z,4.25
2023-05-16T08:27:10.226Z,4.31
2023-05-16T08:28:10.234Z,5.11
2023-05-16T08:29:10.240Z,4.44
2023-05-16T08:30:10.206Z,3.97
2023-05-16T08:31:10.288Z,4.07
2023-05-16T08:32:10.189Z,4.43
2023-05-16T08:33:10.244Z,4.18
2023-05-16T08:34:10.193Z,4.25
2023-05-16T08:35:10.221Z,4.13
2023-05-16T08:36:10.173Z,3.56
2023-05-16T08:37:10.193Z,3.84
2023-05-16T08:38:10.154Z,3.60
2023-05-16T08:39:10.179Z,4.41
2023-05-16T08:40:10.202Z,3.85
2023-05-16T08:41:10.140Z,3.98
2023-05-16T08:42:10.169Z,3.88
2023-05-16T08:43:10.159Z,4.22
2023-05-16T08:44:10.153Z,3.78
2023-05-16T08:45:10.155Z,3.60
2023-05-16T08:46:10.162Z,4.45
2023-05-16T08:47:10.294Z,4.31
2023-05-16T08:48:10.661Z,4.21
2023-05-16T08:49:10.116Z,3.98
2023-05-16T08:50:10.107Z,3.90
2023-05-16T08:51:10.105Z,3.99
2023-05-16T08:52:10.112Z,4.04
2023-05-16T08:53:10.108Z,3.82
2023-05-16T08:54:10.090Z,4.07
2023-05-16T08:55:11.628Z,3.59
2023-05-16T08:56:10.070Z,4.15
2023-05-16T08:57:10.055Z,4.11
2023-05-16T08:58:10.031Z,3.99
2023-05-16T08:59:10.050Z,3.45
2023-05-16T09:00:10.039Z,4.05
2023-05-16T09:01:10.153Z,3.89
2023-05-16T09:02:10.049Z,3.51
2023-05-16T09:03:10.164Z,3.69
2023-05-16T09:04:10.090Z,3.87
2023-05-16T09:05:10.014Z,3.81
2023-05-16T09:06:10.018Z,3.90
2023-05-16T09:07:09.997Z,3.71
2023-05-16T09:08:10.010Z,3.84
2023-05-16T09:09:09.955Z,3.62
2023-05-16T09:10:09.989Z,3.91
2023-05-16T09:11:10.029Z,3.56
2023-05-16T09:12:10.026Z,3.72
2023-05-16T09:13:10.087Z,3.43
2023-05-16T09:14:10.136Z,3.89
2023-05-16T09:15:10.150Z,3.70
2023-05-16T09:16:10.193Z,3.81
2023-05-16T09:17:12.269Z,3.91
2023-05-16T09:18:10.286Z,3.53
2023-05-16T09:19:10.296Z,3.36
2023-05-16T09:20:10.323Z,3.35
2023-05-16T09:21:10.368Z,4.17
2023-05-16T09:22:10.397Z,3.68
2023-05-16T09:23:10.426Z,3.86
2023-05-16T09:24:10.478Z,3.87
2023-05-16T09:25:18.396Z,3.85
2023-05-16T09:26:11.520Z,3.74
2023-05-16T09:27:10.492Z,3.54
2023-05-16T09:28:10.485Z,3.96
2023-05-16T09:29:10.477Z,3.57
2023-05-16T09:30:10.483Z,4.50
2023-05-16T09:31:10.533Z,3.60
2023-05-16T09:32:10.466Z,3.92
2023-05-16T09:33:10.503Z,4.08
2023-05-16T09:34:10.498Z,3.31
2023-05-16T09:35:10.467Z,3.52
2023-05-16T09:36:10.455Z,3.46
2023-05-16T09:37:10.440Z,4.03
2023-05-16T09:38:10.444Z,3.17
2023-05-16T09:39:10.394Z,3.76
2023-05-16T09:40:10.497Z,4.13
2023-05-16T09:41:10.477Z,3.62
2023-05-16T09:42:11.596Z,4.09
2023-05-16T09:43:10.556Z,3.64
2023-05-16T09:44:10.625Z,4.04
2023-05-16T09:45:10.680Z,4.23
2023-05-16T09:46:10.762Z,4.22
2023-05-16T09:47:10.717Z,3.68
2023-05-16T09:48:10.825Z,3.60
2023-05-16T09:49:10.802Z,3.72
2023-05-16T09:50:10.857Z,3.73
2023-05-16T09:51:11.150Z,3.41
2023-05-16T09:52:10.922Z,3.63
2023-05-16T09:53:10.947Z,3.52
2023-05-16T09:54:11.009Z,3.51
2023-05-16T09:55:11.039Z,4.36
2023-05-16T09:56:11.060Z,3.63
2023-05-16T09:57:11.087Z,4.11
2023-05-16T09:58:11.143Z,3.55
2023-05-16T09:59:11.180Z,3.71
2023-05-16T10:00:11.213Z,3.35
2023-05-16T10:01:11.271Z,3.92
2023-05-16T10:02:11.356Z,3.96
2023-05-16T10:03:11.432Z,3.55
2023-05-16T10:04:11.489Z,3.70
2023-05-16T10:05:11.408Z,3.52
2023-05-16T10:06:11.459Z,3.69
2023-05-16T10:07:11.631Z,3.58
2023-05-16T10:08:11.527Z,3.48
2023-05-16T10:09:11.565Z,3.36
2023-05-16T10:10:11.667Z,3.60
2023-05-16T10:11:11.687Z,3.53
2023-05-16T10:12:11.714Z,3.56
2023-05-16T10:13:11.771Z,3.94
2023-05-16T10:14:11.822Z,3.46
2023-05-16T10:15:11.851Z,3.82
2023-05-16T10:16:12.334Z,2.97
2023-05-16T10:17:11.905Z,3.65
2023-05-16T10:18:12.161Z,3.88
2023-05-16T10:19:12.066Z,3.83
2023-05-16T10:20:12.059Z,3.75
2023-05-16T10:21:12.308Z,4.26
2023-05-16T10:22:12.117Z,3.47
2023-05-16T10:23:12.156Z,3.82
2023-05-16T10:24:12.217Z,3.84
2023-05-16T10:25:12.215Z,3.31
2023-05-16T10:26:12.259Z,3.81
2023-05-16T10:27:12.341Z,4.01
2023-05-16T10:28:12.390Z,3.92
2023-05-16T10:29:12.404Z,4.30
2023-05-16T10:30:12.429Z,4.12
2023-05-16T10:31:12.497Z,3.79
2023-05-16T10:32:12.616Z,4.28
2023-05-16T10:33:12.573Z,3.49
2023-05-16T10:34:12.627Z,3.77
2023-05-16T10:35:12.628Z,3.69
2023-05-16T10:36:12.716Z,3.74
2023-05-16T10:37:12.752Z,3.58
2023-05-16T10:38:12.752Z,3.65
2023-05-16T10:39:12.821Z,4.19
2023-05-16T10:40:12.855Z,3.82
2023-05-16T10:41:12.908Z,3.90
2023-05-16T10:42:12.911Z,4.31
2023-05-16T10:43:12.979Z,4.20
2023-05-16T10:44:12.973Z,4.79
2023-05-16T10:45:13.003Z,4.99
2023-05-16T10:46:13.085Z,3.95
2023-05-16T10:47:13.055Z,4.38
2023-05-16T10:48:13.162Z,4.32
2023-05-16T10:49:13.102Z,4.17
2023-05-16T10:50:13.142Z,3.84
2023-05-16T10:51:13.167Z,4.13
2023-05-16T10:52:13.246Z,4.47
2023-05-16T10:53:13.242Z,4.05
2023-05-16T10:54:13.285Z,3.63
2023-05-16T10:55:13.331Z,4.26
2023-05-16T10:56:13.338Z,4.18
2023-05-16T10:57:13.317Z,4.09
2023-05-16T10:58:13.344Z,3.81
2023-05-16T10:59:13.416Z,3.73
2023-05-16T11:00:13.564Z,4.67
2023-05-16T11:01:13.608Z,3.93
2023-05-16T11:02:13.567Z,4.44
2023-05-16T11:03:13.639Z,3.80
2023-05-16T11:04:13.497Z,4.27
2023-05-16T11:05:13.557Z,4.19
2023-05-16T11:06:13.601Z,3.66
2023-05-16T11:07:13.607Z,4.45
2023-05-16T11:08:13.650Z,3.97
2023-05-16T11:09:13.741Z,4.00
2023-05-16T11:10:13.720Z,3.52
2023-05-16T11:11:13.813Z,4.21
2023-05-16T11:12:13.854Z,3.91
2023-05-16T11:13:13.963Z,4.13
2023-05-16T11:14:13.974Z,3.39
2023-05-16T11:15:14.069Z,4.57
2023-05-16T11:16:14.115Z,4.11
2023-05-16T11:17:14.285Z,4.03
2023-05-16T11:18:14.264Z,4.45
2023-05-16T11:19:14.362Z,3.87
2023-05-16T11:20:14.417Z,4.17
2023-05-16T11:21:14.425Z,4.29
2023-05-16T11:22:14.455Z,4.52
2023-05-16T11:23:14.520Z,4.34
2023-05-16T11:24:14.595Z,4.20
2023-05-16T11:25:14.651Z,4.13
2023-05-16T11:26:14.709Z,4.34
2023-05-16T11:27:14.807Z,4.38
2023-05-16T11:28:14.849Z,4.43
2023-05-16T11:29:14.892Z,3.99
2023-05-16T11:30:14.962Z,4.44
2023-05-16T11:31:14.980Z,4.54
2023-05-16T11:32:15.018Z,4.24
2023-05-16T11:33:15.115Z,4.82
2023-05-16T11:34:15.113Z,4.37
2023-05-16T11:35:15.354Z,4.16
2023-05-16T11:36:16.604Z,4.28
2023-05-16T11:37:15.316Z,4.47
2023-05-16T11:38:15.412Z,4.78
2023-05-16T11:39:15.468Z,4.39
2023-05-16T11:40:15.502Z,4.02
2023-05-16T11:41:15.565Z,4.15
2023-05-16T11:42:15.625Z,4.40
2023-05-16T11:43:15.692Z,4.33
2023-05-16T11:44:15.741Z,4.19
2023-05-16T11:45:15.820Z,4.00
2023-05-16T11:46:15.855Z,3.91
2023-05-16T11:47:15.914Z,4.70
2023-05-16T11:48:24.790Z,4.55
2023-05-16T11:49:16.986Z,4.49
2023-05-16T11:50:15.968Z,4.21
2023-05-16T11:51:15.951Z,4.42
2023-05-16T11:52:15.997Z,4.36
2023-05-16T11:53:16.015Z,4.48
2023-05-16T11:54:15.938Z,4.57
2023-05-16T11:55:28.066Z,4.21
2023-05-16T11:56:16.917Z,4.19
2023-05-16T11:57:15.921Z,4.17
2023-05-16T11:58:15.901Z,3.88
2023-05-16T11:59:15.950Z,4.31
2023-05-16T12:00:15.897Z,4.43
2023-05-16T12:01:15.912Z,4.16
2023-05-16T12:02:15.909Z,4.57
2023-05-16T12:03:16.036Z,4.24
2023-05-16T12:04:16.190Z,4.22
2023-05-16T12:05:16.210Z,4.00
2023-05-16T12:06:16.152Z,4.35
2023-05-16T12:07:16.161Z,4.27
2023-05-16T12:08:16.136Z,4.24
2023-05-16T12:09:18.324Z,4.89
2023-05-16T12:10:16.169Z,4.57
2023-05-16T12:11:16.172Z,4.26
2023-05-16T12:12:16.209Z,4.19
2023-05-16T12:13:16.209Z,4.22
2023-05-16T12:14:16.224Z,3.87
2023-05-16T12:15:16.433Z,4.69
2023-05-16T12:16:16.455Z,4.91
2023-05-16T12:17:16.503Z,4.37
2023-05-16T12:18:16.539Z,3.72
2023-05-16T12:19:16.596Z,4.16
2023-05-16T12:20:16.682Z,4.50
2023-05-16T12:21:16.529Z,4.33
2023-05-16T12:22:16.526Z,4.17
2023-05-16T12:23:16.638Z,4.33
2023-05-16T12:24:16.647Z,4.11
2023-05-16T12:25:16.694Z,4.17
2023-05-16T12:26:16.716Z,3.89
2023-05-16T12:27:16.734Z,4.67
2023-05-16T12:28:16.765Z,3.91
2023-05-16T12:29:16.782Z,3.44
2023-05-16T12:30:16.806Z,4.24
2023-05-16T12:31:29.850Z,3.61
2023-05-16T12:32:17.818Z,4.39
2023-05-16T12:33:16.860Z,4.21
2023-05-16T12:34:16.825Z,4.50
2023-05-16T12:35:16.793Z,4.16
2023-05-16T12:36:16.774Z,3.64
2023-05-16T12:37:16.786Z,4.27
2023-05-16T12:38:16.794Z,4.14
2023-05-16T12:39:16.761Z,3.53
2023-05-16T12:40:16.765Z,3.76
2023-05-16T12:41:16.733Z,4.21
2023-05-16T12:42:16.734Z,4.29
2023-05-16T12:43:16.737Z,3.86
2023-05-16T12:44:16.753Z,3.93
2023-05-16T12:45:16.749Z,3.82
2023-05-16T12:46:16.765Z,3.98
2023-05-16T12:47:16.787Z,3.63
2023-05-16T12:48:16.753Z,3.79
2023-05-16T12:49:16.774Z,3.84
2023-05-16T12:50:16.824Z,4.01
2023-05-16T12:51:16.876Z,3.45
2023-05-16T12:52:16.956Z,4.08
2023-05-16T12:53:17.005Z,3.50
2023-05-16T12:54:17.099Z,4.07
2023-05-16T12:55:17.106Z,3.77
2023-05-16T12:56:17.181Z,3.65
2023-05-16T12:57:17.283Z,3.35
2023-05-16T12:58:17.325Z,3.46
2023-05-16T12:59:17.371Z,3.61
2023-05-16T13:00:17.385Z,3.30
2023-05-16T13:01:17.446Z,4.16
2023-05-16T13:02:17.415Z,3.56
2023-05-16T13:03:17.560Z,3.35
2023-05-16T13:04:17.576Z,3.87
2023-05-16T13:05:17.563Z,4.00
2023-05-16T13:06:17.487Z,3.95
2023-05-16T13:07:17.507Z,3.42
2023-05-16T13:08:17.516Z,3.54
2023-05-16T13:09:17.522Z,3.32
2023-05-16T13:10:17.476Z,3.73
2023-05-16T13:11:17.491Z,3.65
2023-05-16T13:12:17.502Z,3.52
2023-05-16T13:13:28.906Z,3.34
2023-05-16T13:14:18.456Z,3.84
2023-05-16T13:15:17.466Z,3.62
2023-05-16T13:16:17.580Z,3.21
2023-05-16T13:17:17.468Z,3.96
2023-05-16T13:18:17.495Z,3.89
2023-05-16T13:19:17.634Z,3.30
2023-05-16T13:20:17.526Z,3.59
2023-05-16T13:21:17.418Z,3.36